sensor_id;sensor_type;location;lat;lon;timestamp;P1;durP1;ratioP1;P2;durP2;ratioP2
2998;SDS011;1509;51.964;7.628;2022-10-28T00:00:27;16.87;;;7.33;;
2998;SDS011;1509;51.964;7.628;2022-10-28T00:02:52;11.57;;;6.30;;
2998;SDS011;1509;51.964;7.628;2022-10-28T00:05:18;11.63;;;6.10;;
2998;SDS011;1509;51.964;7.628;2022-10-28T00:07:43;9.37;;;6.50;;
2998;SDS011;1509;51.964;7.628;2022-10-28T00:10:09;35.07;;;6.73;;
2998;SDS011;1509;51.964;7.628;2022-10-28T00:12:37;10.80;;;6.73;;
2998;SDS011;1509;51.964;7.628;2022-10-28T00:15:03;10.83;;;5.83;;
2998;SDS011;1509;51.964;7.628;2022-10-28T00:17:29;10.93;;;6.57;;
2998;SDS011;1509;51.964;7.628;2022-10-28T00:19:55;10.27;;;5.70;;
2998;SDS011;1509;51.964;7.628;2022-10-28T00:22:21;7.97;;;6.13;;
2998;SDS011;1509;51.964;7.628;2022-10-28T00:24:47;8.40;;;5.30;;
2998;SDS011;1509;51.964;7.628;2022-10-28T00:27:12;9.70;;;5.83;;
2998;SDS011;1509;51.964;7.628;2022-10-28T00:29:38;8.83;;;6.10;;
2998;SDS011;1509;51.964;7.628;2022-10-28T00:32:03;7.83;;;5.30;;
2998;SDS011;1509;51.964;7.628;2022-10-28T00:34:29;12.87;;;5.30;;
2998;SDS011;1509;51.964;7.628;2022-10-28T00:36:55;13.97;;;6.50;;
2998;SDS011;1509;51.964;7.628;2022-10-28T00:39:21;13.73;;;5.63;;
2998;SDS011;1509;51.964;7.628;2022-10-28T00:41:53;16.10;;;7.00;;
2998;SDS011;1509;51.964;7.628;2022-10-28T00:47:12;13.43;;;6.53;;
2998;SDS011;1509;51.964;7.628;2022-10-28T00:50:00;10.20;;;5.43;;
2998;SDS011;1509;51.964;7.628;2022-10-28T00:52:28;6.80;;;5.17;;
2998;SDS011;1509;51.964;7.628;2022-10-28T00:54:55;11.77;;;6.20;;
2998;SDS011;1509;51.964;7.628;2022-10-28T00:57:24;10.60;;;7.03;;
2998;SDS011;1509;51.964;7.628;2022-10-28T00:59:56;10.37;;;5.50;;
2998;SDS011;1509;51.964;7.628;2022-10-28T01:02:23;9.83;;;5.20;;
2998;SDS011;1509;51.964;7.628;2022-10-28T01:04:49;7.50;;;5.00;;
2998;SDS011;1509;51.964;7.628;2022-10-28T01:07:15;8.50;;;4.40;;
2998;SDS011;1509;51.964;7.628;2022-10-28T01:09:41;12.20;;;6.07;;
2998;SDS011;1509;51.964;7.628;2022-10-28T01:15:32;10.03;;;6.77;;
2998;SDS011;1509;51.964;7.628;2022-10-28T01:21:23;7.00;;;5.70;;
2998;SDS011;1509;51.964;7.628;2022-10-28T01:24:16;10.50;;;4.90;;
2998;SDS011;1509;51.964;7.628;2022-10-28T01:35:42;14.37;;;7.40;;
2998;SDS011;1509;51.964;7.628;2022-10-28T01:38:31;11.63;;;6.70;;
2998;SDS011;1509;51.964;7.628;2022-10-28T01:41:20;11.30;;;5.40;;
2998;SDS011;1509;51.964;7.628;2022-10-28T01:46:33;10.20;;;5.70;;
2998;SDS011;1509;51.964;7.628;2022-10-28T01:52:03;11.50;;;5.60;;
2998;SDS011;1509;51.964;7.628;2022-10-28T01:54:33;12.73;;;6.07;;
2998;SDS011;1509;51.964;7.628;2022-10-28T01:57:01;11.90;;;6.03;;
2998;SDS011;1509;51.964;7.628;2022-10-28T01:59:29;14.43;;;9.10;;
2998;SDS011;1509;51.964;7.628;2022-10-28T02:01:57;13.77;;;5.67;;
2998;SDS011;1509;51.964;7.628;2022-10-28T02:04:23;12.37;;;6.30;;
2998;SDS011;1509;51.964;7.628;2022-10-28T02:06:53;10.03;;;6.60;;
2998;SDS011;1509;51.964;7.628;2022-10-28T02:12:32;10.43;;;6.30;;
2998;SDS011;1509;51.964;7.628;2022-10-28T02:15:18;12.30;;;6.10;;
2998;SDS011;1509;51.964;7.628;2022-10-28T02:23:41;10.60;;;5.93;;
2998;SDS011;1509;51.964;7.628;2022-10-28T02:26:22;10.13;;;6.03;;
2998;SDS011;1509;51.964;7.628;2022-10-28T02:29:14;12.10;;;6.87;;
2998;SDS011;1509;51.964;7.628;2022-10-28T02:32:18;11.30;;;6.07;;
2998;SDS011;1509;51.964;7.628;2022-10-28T02:34:39;12.50;;;6.90;;
2998;SDS011;1509;51.964;7.628;2022-10-28T02:37:12;12.87;;;6.80;;
2998;SDS011;1509;51.964;7.628;2022-10-28T02:39:44;15.40;;;7.07;;
2998;SDS011;1509;51.964;7.628;2022-10-28T02:42:14;13.73;;;6.80;;
2998;SDS011;1509;51.964;7.628;2022-10-28T02:44:49;15.93;;;7.20;;
2998;SDS011;1509;51.964;7.628;2022-10-28T02:47:26;10.87;;;7.27;;
2998;SDS011;1509;51.964;7.628;2022-10-28T02:49:59;12.60;;;7.07;;
2998;SDS011;1509;51.964;7.628;2022-10-28T02:52:27;10.97;;;5.97;;
2998;SDS011;1509;51.964;7.628;2022-10-28T02:54:56;8.53;;;6.37;;
2998;SDS011;1509;51.964;7.628;2022-10-28T02:57:28;12.53;;;7.47;;
2998;SDS011;1509;51.964;7.628;2022-10-28T02:59:57;10.40;;;6.47;;
2998;SDS011;1509;51.964;7.628;2022-10-28T03:02:25;10.63;;;7.43;;
2998;SDS011;1509;51.964;7.628;2022-10-28T03:04:51;9.20;;;6.50;;
2998;SDS011;1509;51.964;7.628;2022-10-28T03:07:17;11.00;;;6.43;;
2998;SDS011;1509;51.964;7.628;2022-10-28T03:09:43;11.57;;;6.30;;
2998;SDS011;1509;51.964;7.628;2022-10-28T03:12:09;11.13;;;6.40;;
2998;SDS011;1509;51.964;7.628;2022-10-28T03:14:34;10.23;;;5.90;;
2998;SDS011;1509;51.964;7.628;2022-10-28T03:17:00;9.90;;;7.07;;
2998;SDS011;1509;51.964;7.628;2022-10-28T03:19:26;12.07;;;7.67;;
2998;SDS011;1509;51.964;7.628;2022-10-28T03:21:51;10.80;;;6.27;;
2998;SDS011;1509;51.964;7.628;2022-10-28T03:24:17;13.50;;;7.00;;
2998;SDS011;1509;51.964;7.628;2022-10-28T03:26:42;9.63;;;6.40;;
2998;SDS011;1509;51.964;7.628;2022-10-28T03:29:08;18.57;;;8.47;;
2998;SDS011;1509;51.964;7.628;2022-10-28T03:31:33;9.30;;;6.83;;
2998;SDS011;1509;51.964;7.628;2022-10-28T03:33:59;9.80;;;7.00;;
2998;SDS011;1509;51.964;7.628;2022-10-28T03:36:25;12.30;;;6.63;;
2998;SDS011;1509;51.964;7.628;2022-10-28T03:38:50;8.80;;;6.43;;
2998;SDS011;1509;51.964;7.628;2022-10-28T03:41:16;12.97;;;6.63;;
2998;SDS011;1509;51.964;7.628;2022-10-28T03:43:41;10.73;;;6.40;;
2998;SDS011;1509;51.964;7.628;2022-10-28T03:46:07;12.70;;;6.73;;
2998;SDS011;1509;51.964;7.628;2022-10-28T03:48:32;9.00;;;6.33;;
2998;SDS011;1509;51.964;7.628;2022-10-28T03:50:58;7.20;;;5.57;;
2998;SDS011;1509;51.964;7.628;2022-10-28T03:53:26;13.30;;;6.30;;
2998;SDS011;1509;51.964;7.628;2022-10-28T03:55:55;11.43;;;6.37;;
2998;SDS011;1509;51.964;7.628;2022-10-28T03:58:22;8.53;;;5.50;;
2998;SDS011;1509;51.964;7.628;2022-10-28T04:00:49;13.43;;;6.37;;
2998;SDS011;1509;51.964;7.628;2022-10-28T04:03:16;9.80;;;6.20;;
2998;SDS011;1509;51.964;7.628;2022-10-28T04:05:42;9.17;;;6.40;;
2998;SDS011;1509;51.964;7.628;2022-10-28T04:08:08;8.20;;;6.10;;
2998;SDS011;1509;51.964;7.628;2022-10-28T04:10:34;14.90;;;5.97;;
2998;SDS011;1509;51.964;7.628;2022-10-28T04:13:00;10.20;;;5.80;;
2998;SDS011;1509;51.964;7.628;2022-10-28T04:15:27;19.77;;;6.60;;
2998;SDS011;1509;51.964;7.628;2022-10-28T04:17:53;11.87;;;6.70;;
2998;SDS011;1509;51.964;7.628;2022-10-28T04:20:18;12.37;;;7.50;;
2998;SDS011;1509;51.964;7.628;2022-10-28T04:22:44;9.93;;;6.00;;
2998;SDS011;1509;51.964;7.628;2022-10-28T04:25:10;11.43;;;6.90;;
2998;SDS011;1509;51.964;7.628;2022-10-28T04:27:35;14.77;;;7.17;;
2998;SDS011;1509;51.964;7.628;2022-10-28T04:30:01;11.53;;;6.53;;
2998;SDS011;1509;51.964;7.628;2022-10-28T04:32:27;16.43;;;7.30;;
2998;SDS011;1509;51.964;7.628;2022-10-28T04:34:52;10.70;;;8.60;;
2998;SDS011;1509;51.964;7.628;2022-10-28T04:37:18;10.90;;;6.90;;
2998;SDS011;1509;51.964;7.628;2022-10-28T04:39:43;11.20;;;6.27;;
2998;SDS011;1509;51.964;7.628;2022-10-28T04:42:09;9.90;;;5.97;;
2998;SDS011;1509;51.964;7.628;2022-10-28T04:44:34;14.00;;;6.80;;
2998;SDS011;1509;51.964;7.628;2022-10-28T04:47:00;19.87;;;7.30;;
2998;SDS011;1509;51.964;7.628;2022-10-28T04:49:26;11.60;;;7.33;;
2998;SDS011;1509;51.964;7.628;2022-10-28T04:51:51;10.50;;;6.53;;
2998;SDS011;1509;51.964;7.628;2022-10-28T04:54:17;12.73;;;6.70;;
2998;SDS011;1509;51.964;7.628;2022-10-28T04:56:42;10.57;;;6.57;;
2998;SDS011;1509;51.964;7.628;2022-10-28T04:59:08;12.43;;;6.80;;
2998;SDS011;1509;51.964;7.628;2022-10-28T05:01:33;10.90;;;6.30;;
2998;SDS011;1509;51.964;7.628;2022-10-28T05:04:02;11.43;;;6.43;;
2998;SDS011;1509;51.964;7.628;2022-10-28T05:06:27;11.73;;;6.27;;
2998;SDS011;1509;51.964;7.628;2022-10-28T05:08:53;12.40;;;6.07;;
2998;SDS011;1509;51.964;7.628;2022-10-28T05:11:19;16.53;;;7.13;;
2998;SDS011;1509;51.964;7.628;2022-10-28T05:13:44;12.00;;;6.83;;
2998;SDS011;1509;51.964;7.628;2022-10-28T05:16:10;11.87;;;6.90;;
2998;SDS011;1509;51.964;7.628;2022-10-28T05:18:35;11.57;;;7.10;;
2998;SDS011;1509;51.964;7.628;2022-10-28T05:21:01;9.20;;;7.37;;
2998;SDS011;1509;51.964;7.628;2022-10-28T05:23:27;15.67;;;7.53;;
2998;SDS011;1509;51.964;7.628;2022-10-28T05:25:52;13.70;;;7.87;;
2998;SDS011;1509;51.964;7.628;2022-10-28T05:28:18;13.23;;;7.07;;
2998;SDS011;1509;51.964;7.628;2022-10-28T05:30:43;16.90;;;8.00;;
2998;SDS011;1509;51.964;7.628;2022-10-28T05:33:09;14.03;;;8.07;;
2998;SDS011;1509;51.964;7.628;2022-10-28T05:35:36;14.63;;;9.17;;
2998;SDS011;1509;51.964;7.628;2022-10-28T05:38:02;19.20;;;8.67;;
2998;SDS011;1509;51.964;7.628;2022-10-28T05:40:30;13.70;;;8.40;;
2998;SDS011;1509;51.964;7.628;2022-10-28T05:43:00;14.10;;;8.00;;
2998;SDS011;1509;51.964;7.628;2022-10-28T05:45:25;9.77;;;7.20;;
2998;SDS011;1509;51.964;7.628;2022-10-28T05:47:51;11.83;;;6.30;;
2998;SDS011;1509;51.964;7.628;2022-10-28T05:50:17;15.67;;;7.00;;
2998;SDS011;1509;51.964;7.628;2022-10-28T05:52:51;26.30;;;9.23;;
2998;SDS011;1509;51.964;7.628;2022-10-28T05:55:18;11.00;;;8.00;;
2998;SDS011;1509;51.964;7.628;2022-10-28T05:57:46;17.00;;;8.83;;
2998;SDS011;1509;51.964;7.628;2022-10-28T06:00:17;10.97;;;8.30;;
2998;SDS011;1509;51.964;7.628;2022-10-28T06:02:45;15.17;;;8.23;;
2998;SDS011;1509;51.964;7.628;2022-10-28T06:05:10;16.80;;;6.47;;
2998;SDS011;1509;51.964;7.628;2022-10-28T06:07:38;9.73;;;6.30;;
2998;SDS011;1509;51.964;7.628;2022-10-28T06:10:05;15.50;;;8.70;;
2998;SDS011;1509;51.964;7.628;2022-10-28T06:12:32;12.07;;;6.00;;
2998;SDS011;1509;51.964;7.628;2022-10-28T06:14:58;15.40;;;6.57;;
2998;SDS011;1509;51.964;7.628;2022-10-28T06:17:24;14.07;;;7.40;;
2998;SDS011;1509;51.964;7.628;2022-10-28T06:19:50;11.13;;;5.63;;
2998;SDS011;1509;51.964;7.628;2022-10-28T06:22:15;10.43;;;6.87;;
2998;SDS011;1509;51.964;7.628;2022-10-28T06:24:41;14.43;;;6.20;;
2998;SDS011;1509;51.964;7.628;2022-10-28T06:27:07;12.23;;;7.03;;
2998;SDS011;1509;51.964;7.628;2022-10-28T06:29:33;15.00;;;5.70;;
2998;SDS011;1509;51.964;7.628;2022-10-28T06:31:58;18.40;;;7.80;;
2998;SDS011;1509;51.964;7.628;2022-10-28T06:34:24;11.23;;;6.40;;
2998;SDS011;1509;51.964;7.628;2022-10-28T06:36:49;13.30;;;6.07;;
2998;SDS011;1509;51.964;7.628;2022-10-28T06:39:15;11.07;;;5.10;;
2998;SDS011;1509;51.964;7.628;2022-10-28T06:41:41;8.53;;;5.20;;
2998;SDS011;1509;51.964;7.628;2022-10-28T06:44:07;12.43;;;5.67;;
2998;SDS011;1509;51.964;7.628;2022-10-28T06:46:32;12.20;;;5.73;;
2998;SDS011;1509;51.964;7.628;2022-10-28T06:48:58;9.83;;;6.10;;
2998;SDS011;1509;51.964;7.628;2022-10-28T06:51:27;17.77;;;8.90;;
2998;SDS011;1509;51.964;7.628;2022-10-28T06:53:53;20.03;;;6.10;;
2998;SDS011;1509;51.964;7.628;2022-10-28T06:56:18;11.20;;;5.23;;
2998;SDS011;1509;51.964;7.628;2022-10-28T06:58:48;9.57;;;5.67;;
2998;SDS011;1509;51.964;7.628;2022-10-28T07:01:19;14.07;;;5.13;;
2998;SDS011;1509;51.964;7.628;2022-10-28T07:03:45;11.30;;;5.70;;
2998;SDS011;1509;51.964;7.628;2022-10-28T07:06:11;9.97;;;5.53;;
2998;SDS011;1509;51.964;7.628;2022-10-28T07:08:37;10.30;;;4.87;;
2998;SDS011;1509;51.964;7.628;2022-10-28T07:11:03;17.67;;;5.83;;
2998;SDS011;1509;51.964;7.628;2022-10-28T07:13:29;11.77;;;7.37;;
2998;SDS011;1509;51.964;7.628;2022-10-28T07:15:58;11.33;;;5.87;;
2998;SDS011;1509;51.964;7.628;2022-10-28T07:18:25;11.27;;;5.30;;
2998;SDS011;1509;51.964;7.628;2022-10-28T07:20:53;11.50;;;5.60;;
2998;SDS011;1509;51.964;7.628;2022-10-28T07:23:21;9.03;;;4.73;;
2998;SDS011;1509;51.964;7.628;2022-10-28T07:25:51;12.00;;;4.90;;
2998;SDS011;1509;51.964;7.628;2022-10-28T07:28:17;13.43;;;5.00;;
2998;SDS011;1509;51.964;7.628;2022-10-28T07:30:43;12.47;;;4.90;;
2998;SDS011;1509;51.964;7.628;2022-10-28T07:33:09;10.27;;;5.53;;
2998;SDS011;1509;51.964;7.628;2022-10-28T07:35:34;9.93;;;4.80;;
2998;SDS011;1509;51.964;7.628;2022-10-28T07:38:00;13.77;;;5.20;;
2998;SDS011;1509;51.964;7.628;2022-10-28T07:40:26;14.50;;;5.10;;
2998;SDS011;1509;51.964;7.628;2022-10-28T07:42:51;7.67;;;5.37;;
2998;SDS011;1509;51.964;7.628;2022-10-28T07:45:17;9.27;;;5.37;;
2998;SDS011;1509;51.964;7.628;2022-10-28T07:47:43;13.90;;;5.50;;
2998;SDS011;1509;51.964;7.628;2022-10-28T07:50:09;16.10;;;5.30;;
2998;SDS011;1509;51.964;7.628;2022-10-28T07:52:38;7.87;;;5.10;;
2998;SDS011;1509;51.964;7.628;2022-10-28T07:55:03;8.90;;;4.53;;
2998;SDS011;1509;51.964;7.628;2022-10-28T07:57:30;10.13;;;5.27;;
2998;SDS011;1509;51.964;7.628;2022-10-28T07:59:55;13.73;;;5.30;;
2998;SDS011;1509;51.964;7.628;2022-10-28T08:02:22;15.87;;;5.40;;
2998;SDS011;1509;51.964;7.628;2022-10-28T08:04:48;10.40;;;5.27;;
2998;SDS011;1509;51.964;7.628;2022-10-28T08:07:15;10.00;;;5.10;;
2998;SDS011;1509;51.964;7.628;2022-10-28T08:09:41;11.00;;;4.53;;
2998;SDS011;1509;51.964;7.628;2022-10-28T08:12:07;11.87;;;5.97;;
2998;SDS011;1509;51.964;7.628;2022-10-28T08:14:36;9.80;;;4.40;;
2998;SDS011;1509;51.964;7.628;2022-10-28T08:17:01;14.67;;;4.37;;
2998;SDS011;1509;51.964;7.628;2022-10-28T08:19:27;16.97;;;5.00;;
2998;SDS011;1509;51.964;7.628;2022-10-28T08:21:53;8.87;;;4.23;;
2998;SDS011;1509;51.964;7.628;2022-10-28T08:24:19;8.07;;;4.17;;
2998;SDS011;1509;51.964;7.628;2022-10-28T08:26:46;10.53;;;5.03;;
2998;SDS011;1509;51.964;7.628;2022-10-28T08:29:12;11.90;;;5.13;;
2998;SDS011;1509;51.964;7.628;2022-10-28T08:31:38;10.00;;;4.63;;
2998;SDS011;1509;51.964;7.628;2022-10-28T08:34:04;10.70;;;4.87;;
2998;SDS011;1509;51.964;7.628;2022-10-28T08:36:33;10.63;;;4.50;;
2998;SDS011;1509;51.964;7.628;2022-10-28T08:39:02;10.80;;;4.17;;
2998;SDS011;1509;51.964;7.628;2022-10-28T08:41:37;13.67;;;4.87;;
2998;SDS011;1509;51.964;7.628;2022-10-28T08:44:19;8.90;;;4.67;;
2998;SDS011;1509;51.964;7.628;2022-10-28T08:49:34;10.83;;;4.77;;
2998;SDS011;1509;51.964;7.628;2022-10-28T08:54:39;9.30;;;4.03;;
2998;SDS011;1509;51.964;7.628;2022-10-28T08:57:09;10.53;;;4.50;;
2998;SDS011;1509;51.964;7.628;2022-10-28T08:59:40;10.37;;;4.07;;
2998;SDS011;1509;51.964;7.628;2022-10-28T09:02:24;7.80;;;4.37;;
2998;SDS011;1509;51.964;7.628;2022-10-28T09:05:01;16.73;;;4.40;;
2998;SDS011;1509;51.964;7.628;2022-10-28T09:07:39;8.63;;;3.90;;
2998;SDS011;1509;51.964;7.628;2022-10-28T09:10:05;8.77;;;4.33;;
2998;SDS011;1509;51.964;7.628;2022-10-28T09:15:00;7.97;;;4.60;;
2998;SDS011;1509;51.964;7.628;2022-10-28T09:17:56;9.03;;;3.90;;
2998;SDS011;1509;51.964;7.628;2022-10-28T09:23:22;11.80;;;4.32;;
2998;SDS011;1509;51.964;7.628;2022-10-28T09:25:56;11.27;;;3.90;;
2998;SDS011;1509;51.964;7.628;2022-10-28T09:36:38;16.37;;;4.30;;
2998;SDS011;1509;51.964;7.628;2022-10-28T09:39:40;10.23;;;3.90;;
2998;SDS011;1509;51.964;7.628;2022-10-28T09:42:07;10.10;;;4.83;;
2998;SDS011;1509;51.964;7.628;2022-10-28T09:44:40;11.30;;;4.00;;
2998;SDS011;1509;51.964;7.628;2022-10-28T09:47:18;7.53;;;3.70;;
2998;SDS011;1509;51.964;7.628;2022-10-28T09:49:50;7.57;;;3.97;;
2998;SDS011;1509;51.964;7.628;2022-10-28T09:52:27;10.27;;;3.77;;
2998;SDS011;1509;51.964;7.628;2022-10-28T09:54:57;8.90;;;4.80;;
2998;SDS011;1509;51.964;7.628;2022-10-28T09:57:28;12.40;;;3.87;;
2998;SDS011;1509;51.964;7.628;2022-10-28T09:59:54;11.67;;;4.43;;
2998;SDS011;1509;51.964;7.628;2022-10-28T10:04:51;10.13;;;4.20;;
2998;SDS011;1509;51.964;7.628;2022-10-28T10:07:23;14.77;;;4.17;;
2998;SDS011;1509;51.964;7.628;2022-10-28T10:09:55;9.07;;;4.40;;
2998;SDS011;1509;51.964;7.628;2022-10-28T10:12:22;6.63;;;3.67;;
2998;SDS011;1509;51.964;7.628;2022-10-28T10:14:49;11.27;;;4.27;;
2998;SDS011;1509;51.964;7.628;2022-10-28T10:17:17;7.33;;;4.17;;
2998;SDS011;1509;51.964;7.628;2022-10-28T10:20:10;8.70;;;4.27;;
2998;SDS011;1509;51.964;7.628;2022-10-28T10:22:41;13.37;;;4.63;;
2998;SDS011;1509;51.964;7.628;2022-10-28T10:30:21;11.27;;;4.80;;
2998;SDS011;1509;51.964;7.628;2022-10-28T10:32:49;9.40;;;4.10;;
2998;SDS011;1509;51.964;7.628;2022-10-28T10:35:18;8.60;;;4.67;;
2998;SDS011;1509;51.964;7.628;2022-10-28T10:37:50;9.33;;;4.63;;
2998;SDS011;1509;51.964;7.628;2022-10-28T10:40:24;7.73;;;4.60;;
2998;SDS011;1509;51.964;7.628;2022-10-28T10:42:55;10.20;;;3.67;;
2998;SDS011;1509;51.964;7.628;2022-10-28T10:45:38;13.73;;;5.10;;
2998;SDS011;1509;51.964;7.628;2022-10-28T10:48:11;10.13;;;4.40;;
2998;SDS011;1509;51.964;7.628;2022-10-28T10:50:38;8.53;;;4.40;;
2998;SDS011;1509;51.964;7.628;2022-10-28T10:53:14;14.17;;;4.53;;
2998;SDS011;1509;51.964;7.628;2022-10-28T10:55:50;6.70;;;4.33;;
2998;SDS011;1509;51.964;7.628;2022-10-28T10:58:19;9.43;;;3.63;;
2998;SDS011;1509;51.964;7.628;2022-10-28T11:00:48;14.13;;;4.60;;
2998;SDS011;1509;51.964;7.628;2022-10-28T11:03:17;14.17;;;4.13;;
2998;SDS011;1509;51.964;7.628;2022-10-28T11:05:57;10.37;;;4.50;;
2998;SDS011;1509;51.964;7.628;2022-10-28T11:08:26;14.03;;;4.50;;
2998;SDS011;1509;51.964;7.628;2022-10-28T11:13:43;8.67;;;4.83;;
2998;SDS011;1509;51.964;7.628;2022-10-28T11:16:17;9.80;;;3.80;;
2998;SDS011;1509;51.964;7.628;2022-10-28T11:18:48;10.33;;;4.00;;
2998;SDS011;1509;51.964;7.628;2022-10-28T11:24:23;8.80;;;4.77;;
2998;SDS011;1509;51.964;7.628;2022-10-28T11:29:56;10.03;;;4.87;;
2998;SDS011;1509;51.964;7.628;2022-10-28T11:43:45;8.70;;;4.27;;
2998;SDS011;1509;51.964;7.628;2022-10-28T11:54:38;9.63;;;4.87;;
2998;SDS011;1509;51.964;7.628;2022-10-28T11:57:34;9.83;;;4.10;;
2998;SDS011;1509;51.964;7.628;2022-10-28T12:00:23;10.90;;;4.33;;
2998;SDS011;1509;51.964;7.628;2022-10-28T12:03:17;6.17;;;3.90;;
2998;SDS011;1509;51.964;7.628;2022-10-28T12:06:06;10.47;;;4.40;;
2998;SDS011;1509;51.964;7.628;2022-10-28T12:14:03;14.87;;;5.67;;
2998;SDS011;1509;51.964;7.628;2022-10-28T12:19:42;11.77;;;4.20;;
2998;SDS011;1509;51.964;7.628;2022-10-28T12:22:30;9.87;;;4.70;;
2998;SDS011;1509;51.964;7.628;2022-10-28T12:25:06;11.40;;;5.60;;
2998;SDS011;1509;51.964;7.628;2022-10-28T12:27:38;9.47;;;4.70;;
2998;SDS011;1509;51.964;7.628;2022-10-28T12:30:27;8.60;;;4.33;;
2998;SDS011;1509;51.964;7.628;2022-10-28T12:32:56;12.00;;;4.60;;
2998;SDS011;1509;51.964;7.628;2022-10-28T12:35:35;10.50;;;3.30;;
2998;SDS011;1509;51.964;7.628;2022-10-28T12:38:16;8.63;;;4.77;;
2998;SDS011;1509;51.964;7.628;2022-10-28T12:40:48;11.60;;;3.73;;
2998;SDS011;1509;51.964;7.628;2022-10-28T12:43:25;7.77;;;4.57;;
2998;SDS011;1509;51.964;7.628;2022-10-28T12:45:56;12.40;;;4.60;;
2998;SDS011;1509;51.964;7.628;2022-10-28T12:51:13;8.70;;;4.40;;
2998;SDS011;1509;51.964;7.628;2022-10-28T12:53:45;8.73;;;4.30;;
2998;SDS011;1509;51.964;7.628;2022-10-28T12:56:25;10.57;;;5.40;;
2998;SDS011;1509;51.964;7.628;2022-10-28T12:59:13;7.30;;;3.90;;
2998;SDS011;1509;51.964;7.628;2022-10-28T13:01:58;10.57;;;4.57;;
2998;SDS011;1509;51.964;7.628;2022-10-28T13:04:26;9.63;;;3.70;;
2998;SDS011;1509;51.964;7.628;2022-10-28T13:09:49;10.40;;;4.27;;
2998;SDS011;1509;51.964;7.628;2022-10-28T13:20:45;10.73;;;5.03;;
2998;SDS011;1509;51.964;7.628;2022-10-28T13:26:06;11.17;;;4.03;;
2998;SDS011;1509;51.964;7.628;2022-10-28T13:28:46;7.03;;;4.57;;
2998;SDS011;1509;51.964;7.628;2022-10-28T13:31:13;9.83;;;3.80;;
2998;SDS011;1509;51.964;7.628;2022-10-28T13:33:45;15.97;;;4.67;;
2998;SDS011;1509;51.964;7.628;2022-10-28T13:36:25;11.23;;;4.13;;
2998;SDS011;1509;51.964;7.628;2022-10-28T13:39:00;10.37;;;4.83;;
2998;SDS011;1509;51.964;7.628;2022-10-28T13:41:38;8.60;;;4.17;;
2998;SDS011;1509;51.964;7.628;2022-10-28T13:57:07;11.93;;;4.20;;
2998;SDS011;1509;51.964;7.628;2022-10-28T14:00:01;13.47;;;4.17;;
2998;SDS011;1509;51.964;7.628;2022-10-28T14:05:19;10.40;;;4.73;;
2998;SDS011;1509;51.964;7.628;2022-10-28T14:12:51;16.30;;;4.50;;
2998;SDS011;1509;51.964;7.628;2022-10-28T14:15:24;7.77;;;4.20;;
2998;SDS011;1509;51.964;7.628;2022-10-28T14:17:57;12.77;;;4.30;;
2998;SDS011;1509;51.964;7.628;2022-10-28T14:44:59;12.90;;;3.90;;
2998;SDS011;1509;51.964;7.628;2022-10-28T14:47:25;10.60;;;4.40;;
2998;SDS011;1509;51.964;7.628;2022-10-28T14:50:18;8.60;;;4.27;;
2998;SDS011;1509;51.964;7.628;2022-10-28T14:52:50;8.90;;;4.43;;
2998;SDS011;1509;51.964;7.628;2022-10-28T14:55:23;8.33;;;3.80;;
2998;SDS011;1509;51.964;7.628;2022-10-28T14:57:51;9.80;;;4.00;;
2998;SDS011;1509;51.964;7.628;2022-10-28T15:00:20;10.57;;;4.87;;
2998;SDS011;1509;51.964;7.628;2022-10-28T15:02:49;11.00;;;4.50;;
2998;SDS011;1509;51.964;7.628;2022-10-28T15:05:20;14.97;;;5.17;;
2998;SDS011;1509;51.964;7.628;2022-10-28T15:07:48;10.00;;;4.43;;
2998;SDS011;1509;51.964;7.628;2022-10-28T15:10:30;14.43;;;4.93;;
2998;SDS011;1509;51.964;7.628;2022-10-28T15:13:00;9.37;;;4.13;;
2998;SDS011;1509;51.964;7.628;2022-10-28T15:15:31;8.60;;;4.17;;
2998;SDS011;1509;51.964;7.628;2022-10-28T15:18:01;12.70;;;4.80;;
2998;SDS011;1509;51.964;7.628;2022-10-28T15:20:43;13.10;;;5.40;;
2998;SDS011;1509;51.964;7.628;2022-10-28T15:23:11;10.30;;;4.80;;
2998;SDS011;1509;51.964;7.628;2022-10-28T15:25:39;16.27;;;5.30;;
2998;SDS011;1509;51.964;7.628;2022-10-28T15:28:05;7.63;;;5.13;;
2998;SDS011;1509;51.964;7.628;2022-10-28T15:30:33;8.60;;;4.90;;
2998;SDS011;1509;51.964;7.628;2022-10-28T15:35:53;14.10;;;4.73;;
2998;SDS011;1509;51.964;7.628;2022-10-28T15:38:36;13.87;;;6.30;;
2998;SDS011;1509;51.964;7.628;2022-10-28T15:43:53;7.67;;;4.43;;
2998;SDS011;1509;51.964;7.628;2022-10-28T15:46:26;11.37;;;5.73;;
2998;SDS011;1509;51.964;7.628;2022-10-28T15:48:54;8.60;;;4.30;;
2998;SDS011;1509;51.964;7.628;2022-10-28T15:51:24;14.07;;;6.00;;
2998;SDS011;1509;51.964;7.628;2022-10-28T15:53:54;13.73;;;5.10;;
2998;SDS011;1509;51.964;7.628;2022-10-28T15:56:51;11.03;;;5.07;;
2998;SDS011;1509;51.964;7.628;2022-10-28T15:59:20;13.17;;;4.60;;
2998;SDS011;1509;51.964;7.628;2022-10-28T16:01:47;13.97;;;5.67;;
2998;SDS011;1509;51.964;7.628;2022-10-28T16:06:47;16.30;;;6.40;;
2998;SDS011;1509;51.964;7.628;2022-10-28T16:11:56;13.57;;;4.70;;
2998;SDS011;1509;51.964;7.628;2022-10-28T16:14:36;9.17;;;6.00;;
2998;SDS011;1509;51.964;7.628;2022-10-28T16:19:40;12.23;;;4.67;;
2998;SDS011;1509;51.964;7.628;2022-10-28T16:22:10;11.57;;;5.03;;
2998;SDS011;1509;51.964;7.628;2022-10-28T16:24:37;11.73;;;4.67;;
2998;SDS011;1509;51.964;7.628;2022-10-28T16:27:15;14.73;;;6.10;;
2998;SDS011;1509;51.964;7.628;2022-10-28T16:29:43;11.70;;;4.43;;
2998;SDS011;1509;51.964;7.628;2022-10-28T16:32:12;11.57;;;4.73;;
2998;SDS011;1509;51.964;7.628;2022-10-28T16:34:39;11.80;;;5.53;;
2998;SDS011;1509;51.964;7.628;2022-10-28T16:37:38;12.97;;;6.03;;
2998;SDS011;1509;51.964;7.628;2022-10-28T16:39:58;10.00;;;5.03;;
2998;SDS011;1509;51.964;7.628;2022-10-28T16:42:23;12.60;;;4.93;;
2998;SDS011;1509;51.964;7.628;2022-10-28T16:44:50;10.50;;;5.00;;
2998;SDS011;1509;51.964;7.628;2022-10-28T16:47:17;8.20;;;4.30;;
2998;SDS011;1509;51.964;7.628;2022-10-28T16:49:44;12.90;;;6.07;;
2998;SDS011;1509;51.964;7.628;2022-10-28T16:52:14;9.73;;;4.73;;
2998;SDS011;1509;51.964;7.628;2022-10-28T16:54:48;7.77;;;4.73;;
2998;SDS011;1509;51.964;7.628;2022-10-28T16:57:15;15.53;;;6.10;;
2998;SDS011;1509;51.964;7.628;2022-10-28T16:59:42;8.87;;;5.10;;
2998;SDS011;1509;51.964;7.628;2022-10-28T17:05:02;10.63;;;4.83;;
2998;SDS011;1509;51.964;7.628;2022-10-28T17:07:29;6.83;;;4.87;;
2998;SDS011;1509;51.964;7.628;2022-10-28T17:09:54;14.60;;;5.60;;
2998;SDS011;1509;51.964;7.628;2022-10-28T17:12:21;15.30;;;6.67;;
2998;SDS011;1509;51.964;7.628;2022-10-28T17:14:49;12.00;;;4.87;;
2998;SDS011;1509;51.964;7.628;2022-10-28T17:17:15;10.17;;;5.47;;
2998;SDS011;1509;51.964;7.628;2022-10-28T17:19:41;9.53;;;4.13;;
2998;SDS011;1509;51.964;7.628;2022-10-28T17:22:09;12.63;;;5.90;;
2998;SDS011;1509;51.964;7.628;2022-10-28T17:24:35;18.27;;;4.90;;
2998;SDS011;1509;51.964;7.628;2022-10-28T17:27:01;14.20;;;6.37;;
2998;SDS011;1509;51.964;7.628;2022-10-28T17:29:28;14.27;;;6.20;;
2998;SDS011;1509;51.964;7.628;2022-10-28T17:31:53;13.53;;;5.33;;
2998;SDS011;1509;51.964;7.628;2022-10-28T17:34:19;13.03;;;5.80;;
2998;SDS011;1509;51.964;7.628;2022-10-28T17:36:44;8.57;;;4.90;;
2998;SDS011;1509;51.964;7.628;2022-10-28T17:39:10;9.33;;;4.50;;
2998;SDS011;1509;51.964;7.628;2022-10-28T17:41:38;13.03;;;5.40;;
2998;SDS011;1509;51.964;7.628;2022-10-28T17:44:03;13.43;;;5.77;;
2998;SDS011;1509;51.964;7.628;2022-10-28T17:46:29;13.13;;;5.10;;
2998;SDS011;1509;51.964;7.628;2022-10-28T17:48:55;16.17;;;5.23;;
2998;SDS011;1509;51.964;7.628;2022-10-28T17:51:20;7.87;;;5.40;;
2998;SDS011;1509;51.964;7.628;2022-10-28T17:53:55;13.07;;;6.57;;
2998;SDS011;1509;51.964;7.628;2022-10-28T17:56:21;18.27;;;5.83;;
2998;SDS011;1509;51.964;7.628;2022-10-28T17:58:47;13.30;;;5.10;;
2998;SDS011;1509;51.964;7.628;2022-10-28T18:01:12;11.37;;;6.60;;
2998;SDS011;1509;51.964;7.628;2022-10-28T18:03:38;10.43;;;4.77;;
2998;SDS011;1509;51.964;7.628;2022-10-28T18:06:04;8.23;;;5.10;;
2998;SDS011;1509;51.964;7.628;2022-10-28T18:08:34;10.20;;;5.80;;
2998;SDS011;1509;51.964;7.628;2022-10-28T18:11:01;10.63;;;5.50;;
2998;SDS011;1509;51.964;7.628;2022-10-28T18:13:29;11.57;;;5.50;;
2998;SDS011;1509;51.964;7.628;2022-10-28T18:16:02;13.93;;;5.80;;